Time,TemperatureF,DewpointF,PressureIn,WindDirection,WindDirectionDegrees,WindSpeedMPH,WindSpeedGustMPH,Humidity,HourlyPrecipIn,Conditions,Clouds,dailyrainin,SoftwareType,DateUTC
2013-01-02 00:05:00,10.0,6.0,29.89,NNE,26,3.0,11.0,85,0.00,,,0.00,weatherlink.com 1.10,2013-01-02 05:05:00,
2013-01-02 00:20:00,10.0,6.0,29.89,North,10,3.0,13.0,84,0.00,,,0.00,weatherlink.com 1.10,2013-01-02 05:20:00,
2013-01-02 00:35:00,10.1,7.0,29.89,NW,319,11.0,13.0,85,0.00,,,0.00,weatherlink.com 1.10,2013-01-02 05:35:00,
2013-01-02 00:50:00,10.3,7.0,29.89,NNE,26,6.0,15.0,85,0.00,,,0.00,weatherlink.com 1.10,2013-01-02 05:50:00,
2013-01-02 01:05:00,10.4,7.0,29.89,NNE,12,7.0,18.0,85,0.00,,,0.00,weatherlink.com 1.10,2013-01-02 06:05:00,
2013-01-02 01:21:00,10.3,7.0,29.89,North,355,14.0,16.0,85,0.00,,,0.00,weatherlink.com 1.10,2013-01-02 06:21:00,
2013-01-02 01:36:00,10.2,7.0,29.90,North,355,7.0,14.0,85,0.00,,,0.00,weatherlink.com 1.10,2013-01-02 06:36:00,
2013-01-02 01:51:00,10.1,7.0,29.90,NW,325,8.0,16.0,86,0.00,,,0.00,weatherlink.com 1.10,2013-01-02 06:51:00,
2013-01-02 02:06:00,10.0,7.0,29.91,NNE,32,9.0,15.0,86,0.00,,,0.00,weatherlink.com 1.10,2013-01-02 07:06:00,
2013-01-02 02:21:00,9.8,7.0,29.91,NW,315,6.0,13.0,86,0.00,,,0.00,weatherlink.com 1.10,2013-01-02 07:21:00,
2013-01-02 02:36:00,9.6,6.0,29.92,NE,40,3.0,10.0,86,0.00,,,0.00,weatherlink.com 1.10,2013-01-02 07:36:00,
2013-01-02 02:51:00,9.4,6.0,29.91,NNW,344,5.0,10.0,87,0.00,,,0.00,weatherlink.com 1.10,2013-01-02 07:51:00,
2013-01-02 03:06:00,9.0,6.0,29.91,NNW,333,3.0,12.0,87,0.00,,,0.00,weatherlink.com 1.10,2013-01-02 08:06:00,
2013-01-02 03:21:00,8.8,6.0,29.91,NE,53,3.0,11.0,88,0.00,,,0.00,weatherlink.com 1.10,2013-01-02 08:21:00,
2013-01-02 03:36:00,8.0,5.0,29.91,ENE,64,1.0,5.0,87,0.00,,,0.00,weatherlink.com 1.10,2013-01-02 08:36:00,
2013-01-02 03:51:00,6.9,4.0,29.91,NNE,17,1.0,3.0,87,0.00,,,0.00,weatherlink.com 1.10,2013-01-02 08:51:00,
2013-01-02 04:06:00,5.8,3.0,29.91,NNE,17,0.0,2.0,88,0.00,,,0.00,weatherlink.com 1.10,2013-01-02 09:06:00,
2013-01-02 04:21:00,5.0,2.0,29.91,NNE,17,0.0,0.0,88,0.00,,,0.00,weatherlink.com 1.10,2013-01-02 09:21:00,
2013-01-02 04:36:00,4.9,2.0,29.91,NNE,17,0.0,1.0,89,0.00,,,0.00,weatherlink.com 1.10,2013-01-02 09:36:00,
2013-01-02 04:52:00,5.6,4.0,29.92,NNE,17,1.0,1.0,91,0.00,,,0.00,weatherlink.com 1.10,2013-01-02 09:52:00,
2013-01-02 05:07:00,6.5,4.0,29.92,NNE,17,2.0,2.0,90,0.00,,,0.00,weatherlink.com 1.10,2013-01-02 10:07:00,
2013-01-02 05:22:00,7.6,5.0,29.92,NNE,24,0.0,3.0,89,0.00,,,0.00,weatherlink.com 1.10,2013-01-02 10:22:00,
2013-01-02 05:37:00,7.8,5.0,29.91,East,92,0.0,2.0,88,0.00,,,0.00,weatherlink.com 1.10,2013-01-02 10:37:00,
2013-01-02 05:52:00,7.6,5.0,29.91,East,92,1.0,1.0,88,0.00,,,0.00,weatherlink.com 1.10,2013-01-02 10:52:00,
2013-01-02 06:07:00,7.7,5.0,29.92,East,88,0.0,3.0,88,0.00,,,0.00,weatherlink.com 1.10,2013-01-02 11:07:00,
2013-01-02 06:22:00,8.5,6.0,29.92,NNE,22,2.0,5.0,88,0.00,,,0.00,weatherlink.com 1.10,2013-01-02 11:22:00,
2013-01-02 06:37:00,-999.0,-99.9,29.92,North,-999,-999.0,-999.0,-999,0.00,,,0.00,weatherlink.com 1.10,2013-01-02 11:37:00,
2013-01-02 06:52:00,-999.0,-99.9,29.91,North,-999,-999.0,-999.0,-999,0.00,,,0.00,weatherlink.com 1.10,2013-01-02 11:52:00,
2013-01-02 07:07:00,-999.0,-99.9,29.90,North,-999,-999.0,-999.0,-999,0.00,,,0.00,weatherlink.com 1.10,2013-01-02 12:07:00,
2013-01-02 07:22:00,-999.0,-99.9,29.91,North,-999,-999.0,-999.0,-999,0.00,,,0.00,weatherlink.com 1.10,2013-01-02 12:22:00,
2013-01-02 07:37:00,-999.0,-99.9,29.90,North,-999,-999.0,-999.0,-999,0.00,,,0.00,weatherlink.com 1.10,2013-01-02 12:37:00,
2013-01-02 07:52:00,-999.0,-99.9,29.90,North,-999,-999.0,-999.0,-999,0.00,,,0.00,weatherlink.com 1.10,2013-01-02 12:52:00,
2013-01-02 08:08:00,10.0,6.0,29.91,North,360,0.0,3.0,85,0.00,,,0.00,weatherlink.com 1.10,2013-01-02 13:08:00,
2013-01-02 08:23:00,10.5,7.0,29.92,North,5,2.0,4.0,86,0.00,,,0.00,weatherlink.com 1.10,2013-01-02 13:23:00,
2013-01-02 08:38:00,11.6,8.0,29.92,East,92,1.0,4.0,84,0.00,,,0.00,weatherlink.com 1.10,2013-01-02 13:38:00,
2013-01-02 08:53:00,12.7,8.0,29.93,West,264,1.0,7.0,82,0.00,,,0.00,weatherlink.com 1.10,2013-01-02 13:53:00,
2013-01-02 09:08:00,13.7,9.0,29.93,NNE,22,2.0,7.0,81,0.00,,,0.00,weatherlink.com 1.10,2013-01-02 14:08:00,
2013-01-02 09:23:00,14.5,9.0,29.93,NNW,334,7.0,7.0,80,0.00,,,0.00,weatherlink.com 1.10,2013-01-02 14:23:00,
2013-01-02 09:38:00,15.9,10.0,29.94,NNW,331,5.0,12.0,76,0.00,,,0.00,weatherlink.com 1.10,2013-01-02 14:38:00,
2013-01-02 09:53:00,16.6,10.0,29.95,ENE,73,7.0,15.0,74,0.00,,,0.00,weatherlink.com 1.10,2013-01-02 14:53:00,
2013-01-02 10:08:00,17.6,10.0,29.95,NE,42,3.0,8.0,73,0.00,,,0.00,weatherlink.com 1.10,2013-01-02 15:08:00,
2013-01-02 10:23:00,17.5,10.0,29.95,ENE,75,1.0,10.0,73,0.00,,,0.00,weatherlink.com 1.10,2013-01-02 15:23:00,
2013-01-02 10:38:00,17.5,10.0,29.95,NNE,28,1.0,13.0,73,0.00,,,0.00,weatherlink.com 1.10,2013-01-02 15:38:00,
2013-01-02 10:53:00,18.0,10.0,29.94,North,9,7.0,12.0,72,0.00,,,0.00,weatherlink.com 1.10,2013-01-02 15:53:00,
2013-01-02 11:08:00,18.1,11.0,29.95,NNE,25,10.0,13.0,73,0.00,,,0.00,weatherlink.com 1.10,2013-01-02 16:08:00,
2013-01-02 11:23:00,17.7,11.0,29.94,NE,55,8.0,17.0,76,0.00,,,0.00,weatherlink.com 1.10,2013-01-02 16:23:00,
2013-01-02 11:39:00,17.9,12.0,29.94,North,355,10.0,12.0,77,0.00,,,0.00,weatherlink.com 1.10,2013-01-02 16:39:00,
2013-01-02 11:54:00,17.7,12.0,29.94,North,360,7.0,20.0,79,0.00,,,0.00,weatherlink.com 1.10,2013-01-02 16:54:00,
2013-01-02 12:09:00,17.6,13.0,29.94,NNW,327,4.0,20.0,81,0.00,,,0.00,weatherlink.com 1.10,2013-01-02 17:09:00,
2013-01-02 12:24:00,17.6,12.0,29.94,North,360,7.0,16.0,80,0.00,,,0.00,weatherlink.com 1.10,2013-01-02 17:24:00,
2013-01-02 12:39:00,17.5,12.0,29.94,NNE,26,4.0,15.0,80,0.00,,,0.00,weatherlink.com 1.10,2013-01-02 17:39:00,
2013-01-02 12:54:00,17.5,13.0,29.94,North,5,9.0,17.0,81,0.00,,,0.00,weatherlink.com 1.10,2013-01-02 17:54:00,
2013-01-02 13:09:00,17.6,13.0,29.95,NNW,346,10.0,17.0,81,0.00,,,0.00,weatherlink.com 1.10,2013-01-02 18:09:00,
2013-01-02 13:24:00,17.6,12.0,29.95,North,351,5.0,20.0,80,0.00,,,0.00,weatherlink.com 1.10,2013-01-02 18:24:00,
2013-01-02 13:39:00,17.6,12.0,29.95,NNW,344,7.0,17.0,80,0.00,,,0.00,weatherlink.com 1.10,2013-01-02 18:39:00,
2013-01-02 13:54:00,17.6,12.0,29.96,North,9,5.0,16.0,80,0.00,,,0.00,weatherlink.com 1.10,2013-01-02 18:54:00,
2013-01-02 14:09:00,17.6,12.0,29.96,North,5,13.0,17.0,80,0.00,,,0.00,weatherlink.com 1.10,2013-01-02 19:09:00,
2013-01-02 14:24:00,17.5,13.0,29.97,North,349,12.0,15.0,81,0.00,,,0.00,weatherlink.com 1.10,2013-01-02 19:24:00,
2013-01-02 14:39:00,17.5,13.0,29.98,NNW,344,4.0,15.0,82,0.00,,,0.00,weatherlink.com 1.10,2013-01-02 19:39:00,
2013-01-02 14:55:00,17.4,13.0,29.99,NE,38,2.0,16.0,84,0.00,,,0.00,weatherlink.com 1.10,2013-01-02 19:55:00,
2013-01-02 15:10:00,17.3,14.0,29.99,NNW,338,7.0,16.0,87,0.00,,,0.00,weatherlink.com 1.10,2013-01-02 20:10:00,
2013-01-02 15:25:00,17.2,14.0,29.99,NE,51,7.0,18.0,88,0.00,,,0.00,weatherlink.com 1.10,2013-01-02 20:25:00,
2013-01-02 15:40:00,17.2,14.0,30.00,NNW,327,6.0,17.0,88,0.00,,,0.00,weatherlink.com 1.10,2013-01-02 20:40:00,
2013-01-02 15:55:00,17.3,14.0,30.01,North,5,5.0,16.0,88,0.00,,,0.00,weatherlink.com 1.10,2013-01-02 20:55:00,
2013-01-02 16:10:00,17.2,14.0,30.01,North,355,6.0,16.0,88,0.00,,,0.00,weatherlink.com 1.10,2013-01-02 21:10:00,
2013-01-02 16:25:00,17.1,14.0,30.01,NNE,30,5.0,13.0,88,0.00,,,0.00,weatherlink.com 1.10,2013-01-02 21:25:00,
2013-01-02 16:40:00,17.1,14.0,30.01,North,5,8.0,13.0,87,0.00,,,0.00,weatherlink.com 1.10,2013-01-02 21:40:00,
2013-01-02 16:55:00,17.2,14.0,30.02,NE,46,6.0,15.0,87,0.00,,,0.00,weatherlink.com 1.10,2013-01-02 21:55:00,
2013-01-02 17:10:00,17.0,14.0,30.02,North,355,3.0,13.0,88,0.00,,,0.00,weatherlink.com 1.10,2013-01-02 22:10:00,
2013-01-02 17:25:00,16.7,14.0,30.02,NNE,25,3.0,12.0,89,0.00,,,0.00,weatherlink.com 1.10,2013-01-02 22:25:00,
2013-01-02 17:55:00,16.0,13.0,30.04,NNW,338,4.0,10.0,88,0.00,,,0.00,weatherlink.com 1.10,2013-01-02 22:55:00,
2013-01-02 18:10:00,15.8,13.0,30.04,NW,325,5.0,10.0,88,0.00,,,0.00,weatherlink.com 1.10,2013-01-02 23:10:00,
2013-01-02 18:26:00,15.9,13.0,30.05,WNW,293,4.0,13.0,87,0.00,,,0.00,weatherlink.com 1.10,2013-01-02 23:26:00,
2013-01-02 18:41:00,15.9,12.0,30.05,NW,320,4.0,13.0,85,0.00,,,0.00,weatherlink.com 1.10,2013-01-02 23:41:00,
2013-01-02 18:56:00,15.8,12.0,30.05,NNE,24,6.0,12.0,85,0.00,,,0.00,weatherlink.com 1.10,2013-01-02 23:56:00,
2013-01-02 19:26:00,15.8,12.0,30.06,NNE,15,9.0,13.0,85,0.00,,,0.00,weatherlink.com 1.10,2013-01-03 00:26:00,
2013-01-02 19:41:00,15.5,12.0,30.06,NNE,33,2.0,12.0,86,0.00,,,0.00,weatherlink.com 1.10,2013-01-03 00:41:00,
2013-01-02 19:56:00,15.3,12.0,30.06,NE,38,8.0,15.0,86,0.00,,,0.00,weatherlink.com 1.10,2013-01-03 00:56:00,
2013-01-02 20:11:00,14.9,11.0,30.05,NNW,337,6.0,14.0,85,0.00,,,0.00,weatherlink.com 1.10,2013-01-03 01:11:00,
2013-01-02 20:26:00,14.4,11.0,30.05,NW,304,5.0,12.0,85,0.00,,,0.00,weatherlink.com 1.10,2013-01-03 01:26:00,
2013-01-02 20:41:00,14.0,11.0,30.07,WNW,300,4.0,8.0,86,0.00,,,0.00,weatherlink.com 1.10,2013-01-03 01:41:00,
2013-01-02 20:56:00,13.6,10.0,30.07,NNE,18,2.0,10.0,86,0.00,,,0.00,weatherlink.com 1.10,2013-01-03 01:56:00,
2013-01-02 21:11:00,13.1,9.0,30.07,NNW,334,1.0,13.0,85,0.00,,,0.00,weatherlink.com 1.10,2013-01-03 02:11:00,
2013-01-02 21:26:00,12.8,9.0,30.08,NW,309,4.0,11.0,85,0.00,,,0.00,weatherlink.com 1.10,2013-01-03 02:26:00,
2013-01-02 21:41:00,12.6,9.0,30.08,North,360,7.0,11.0,84,0.00,,,0.00,weatherlink.com 1.10,2013-01-03 02:41:00,
2013-01-02 21:57:00,12.0,8.0,30.09,North,350,3.0,9.0,84,0.00,,,0.00,weatherlink.com 1.10,2013-01-03 02:57:00,
2013-01-02 22:12:00,11.6,8.0,30.09,NNE,20,5.0,10.0,85,0.00,,,0.00,weatherlink.com 1.10,2013-01-03 03:12:00,
2013-01-02 22:27:00,11.2,8.0,30.10,NE,42,2.0,8.0,87,0.00,,,0.00,weatherlink.com 1.10,2013-01-03 03:27:00,
2013-01-02 22:42:00,10.8,7.0,30.09,NE,38,2.0,7.0,86,0.00,,,0.00,weatherlink.com 1.10,2013-01-03 03:42:00,
2013-01-02 22:57:00,10.6,7.0,30.10,NE,52,3.0,10.0,86,0.00,,,0.00,weatherlink.com 1.10,2013-01-03 03:57:00,
2013-01-02 23:12:00,10.4,7.0,30.10,NNE,32,4.0,9.0,85,0.00,,,0.00,weatherlink.com 1.10,2013-01-03 04:12:00,
2013-01-02 23:27:00,10.4,7.0,30.10,ENE,62,7.0,8.0,84,0.00,,,0.00,weatherlink.com 1.10,2013-01-03 04:27:00,
2013-01-02 23:42:00,10.4,6.0,30.11,NNE,21,3.0,9.0,83,0.00,,,0.00,weatherlink.com 1.10,2013-01-03 04:42:00,
2013-01-02 23:57:00,10.3,6.0,30.11,NW,323,3.0,10.0,81,0.00,,,0.00,weatherlink.com 1.10,2013-01-03 04:57:00,